createdAt,value
2018-09-18T00:02:17.540Z,148025.06
2018-09-18T00:04:47.451Z,148023.81
2018-09-18T00:07:17.539Z,148027.53
2018-09-18T00:09:47.679Z,148017.59
2018-09-18T00:12:17.592Z,148010.09
2018-09-18T00:14:48.232Z,148006.38
2018-09-18T00:17:18.188Z,148003.89
2018-09-18T00:19:48.436Z,147986.50
2018-09-18T00:22:18.470Z,147975.31
2018-09-18T00:24:48.779Z,147967.81
2018-09-18T00:27:18.899Z,147977.80
2018-09-18T00:29:50.136Z,147981.53
2018-09-18T00:32:21.160Z,147961.59
2018-09-18T00:34:51.261Z,147954.16
2018-09-18T00:37:21.438Z,147941.72
2018-09-18T00:39:52.526Z,147924.34
2018-09-18T00:42:22.931Z,147923.09
2018-09-18T00:44:53.201Z,147930.55
2018-09-18T00:47:23.396Z,147926.81
2018-09-18T00:49:53.747Z,147920.56
2018-09-18T00:52:23.896Z,147908.14
2018-09-18T00:54:53.984Z,147896.97
2018-09-18T00:57:24.101Z,147883.30
2018-09-18T00:59:53.940Z,147884.55
2018-09-18T01:02:24.009Z,147878.33
2018-09-18T01:04:54.024Z,147880.81
2018-09-18T01:07:23.943Z,147874.56
2018-09-18T01:09:54.643Z,147895.72
2018-09-18T01:12:24.707Z,147904.42
2018-09-18T01:14:55.106Z,147899.45
2018-09-18T01:17:25.522Z,147895.72
2018-09-18T01:19:56.540Z,147906.91
2018-09-18T01:22:26.460Z,147899.45
2018-09-18T01:24:57.092Z,147910.62
2018-09-18T01:27:27.422Z,147929.31
2018-09-18T01:29:57.297Z,147908.14
2018-09-18T01:32:27.141Z,147893.23
2018-09-18T01:34:57.056Z,147885.78
2018-09-18T01:37:27.385Z,147904.42
2018-09-18T01:39:58.225Z,147911.88
2018-09-18T01:42:28.026Z,147910.62
2018-09-18T01:44:57.767Z,147933.03
2018-09-18T01:47:27.770Z,147947.94
2018-09-18T01:49:57.906Z,147939.25
2018-09-18T01:52:29.181Z,147935.52
2018-09-18T01:54:59.160Z,147941.72
2018-09-18T01:57:30.085Z,147944.22
2018-09-18T02:00:01.351Z,147933.03
2018-09-18T02:02:31.355Z,147940.48
2018-09-18T02:05:01.568Z,147944.22
2018-09-18T02:07:35.882Z,147945.45
2018-09-18T02:10:06.175Z,147974.06
2018-09-18T02:12:36.406Z,147970.34
2018-09-18T02:15:06.459Z,147947.94
2018-09-18T02:17:36.563Z,147930.55
2018-09-18T02:20:06.800Z,147923.09
2018-09-18T02:22:36.938Z,147903.17
2018-09-18T02:25:07.014Z,147903.17
2018-09-18T02:27:37.400Z,147928.06
2018-09-18T02:30:07.825Z,147923.09
2018-09-18T02:32:37.821Z,147938.00
2018-09-18T02:35:08.231Z,147939.25
2018-09-18T02:37:38.803Z,147908.14
2018-09-18T02:40:08.985Z,147908.14
2018-09-18T02:42:40.217Z,147909.38
2018-09-18T02:45:11.299Z,147913.11
2018-09-18T02:47:41.431Z,147896.97
2018-09-18T02:50:11.739Z,147885.78
2018-09-18T02:52:45.399Z,147878.33
2018-09-18T02:55:16.351Z,147877.09
2018-09-18T02:57:46.479Z,147873.31
2018-09-18T03:00:16.612Z,147878.33
2018-09-18T03:02:46.922Z,147884.55
2018-09-18T03:05:17.090Z,147892.00
2018-09-18T03:07:47.132Z,147883.30
2018-09-18T03:10:17.496Z,147895.72
2018-09-18T03:12:47.753Z,147904.42
2018-09-18T03:15:18.071Z,147879.58
2018-09-18T03:17:48.486Z,147879.58
2018-09-18T03:20:19.644Z,147898.20
2018-09-18T03:22:50.146Z,147911.88
2018-09-18T03:25:20.271Z,147903.17
2018-09-18T03:27:53.556Z,147913.11
2018-09-18T03:30:24.725Z,147928.06
2018-09-18T03:32:55.942Z,147918.08
2018-09-18T03:35:26.315Z,147910.62
2018-09-18T03:37:57.446Z,147905.66
2018-09-18T03:40:28.548Z,147908.14
2018-09-18T03:42:58.569Z,147900.69
2018-09-18T03:45:28.833Z,147914.34
2018-09-18T03:47:58.850Z,147909.38
2018-09-18T03:50:29.355Z,147910.62
2018-09-18T03:52:59.458Z,147900.69
2018-09-18T03:55:29.489Z,147890.75
2018-09-18T03:57:59.834Z,147896.97
2018-09-18T04:00:30.102Z,147904.42
2018-09-18T04:03:00.159Z,147933.03
2018-09-18T04:05:30.303Z,147921.81
2018-09-18T04:08:01.264Z,147934.28
2018-09-18T04:10:31.419Z,147945.45
2018-09-18T04:13:01.550Z,147960.36
2018-09-18T04:15:31.663Z,147960.36
2018-09-18T04:18:03.513Z,147960.36
2018-09-18T04:20:34.155Z,147985.25
2018-09-18T04:23:04.306Z,147997.67
2018-09-18T04:25:34.624Z,147985.25
2018-09-18T04:28:04.493Z,148005.12
2018-09-18T04:30:34.663Z,148032.50
2018-09-18T04:33:04.658Z,148020.09
2018-09-18T04:35:35.792Z,148025.06
2018-09-18T04:38:07.407Z,148031.27
2018-09-18T04:40:37.822Z,148062.38
2018-09-18T04:43:08.318Z,148083.55
2018-09-18T04:45:38.481Z,148132.06
2018-09-18T04:48:08.751Z,148117.16
2018-09-18T04:50:38.752Z,148137.03
2018-09-18T04:53:09.588Z,148137.03
2018-09-18T04:55:40.378Z,148164.44
2018-09-18T04:58:10.494Z,148185.56
2018-09-18T05:00:40.821Z,148207.98
2018-09-18T05:03:11.050Z,148249.02
2018-09-18T05:05:41.376Z,148286.41
2018-09-18T05:08:11.592Z,148341.17
2018-09-18T05:10:41.564Z,148490.63
2018-09-18T05:13:12.560Z,148829.63
2018-09-18T05:15:42.897Z,149136.52
2018-09-18T05:18:14.282Z,149308.80
2018-09-18T05:20:46.650Z,149483.63
2018-09-18T05:23:16.910Z,149528.59
2018-09-18T05:25:47.789Z,149857.33
2018-09-18T05:28:18.049Z,150049.95
2018-09-18T05:30:48.721Z,150223.91
2018-09-18T05:33:19.439Z,150301.53
2018-09-18T05:35:49.475Z,150508.17
2018-09-18T05:38:19.491Z,150602.09
2018-09-18T05:40:49.736Z,150614.62
2018-09-18T05:43:20.309Z,150811.47
2018-09-18T05:45:50.615Z,150719.94
2018-09-18T05:48:24.649Z,150533.23
2018-09-18T05:50:54.818Z,150640.94
2018-09-18T05:53:24.943Z,150444.28
2018-09-18T05:55:55.016Z,150456.78
2018-09-18T05:58:26.333Z,150542.00
2018-09-18T06:00:56.506Z,150430.47
2018-09-18T06:03:28.643Z,150377.91
2018-09-18T06:05:58.777Z,150216.41
2018-09-18T06:08:30.238Z,150281.47
2018-09-18T06:11:00.439Z,150424.22
2018-09-18T06:13:30.617Z,150533.23
2018-09-18T06:16:01.364Z,150627.17
2018-09-18T06:18:31.612Z,150460.53
2018-09-18T06:21:01.654Z,150414.22
2018-09-18T06:23:33.783Z,150137.53
2018-09-18T06:26:04.209Z,150088.73
2018-09-18T06:28:35.074Z,149856.09
2018-09-18T06:31:06.332Z,150190.13
2018-09-18T06:33:36.614Z,150217.66
2018-09-18T06:36:07.927Z,150369.14
2018-09-18T06:38:40.232Z,150545.75
2018-09-18T06:41:12.221Z,150163.81
2018-09-18T06:43:42.397Z,150168.81
2018-09-18T06:46:13.581Z,150230.16
2018-09-18T06:48:44.191Z,149831.06
2018-09-18T06:51:14.235Z,149683.59
2018-09-18T06:53:45.590Z,149387.42
2018-09-18T06:56:16.011Z,149250.09
2018-09-18T06:58:46.169Z,149203.92
2018-09-18T07:01:16.326Z,149049.12
2018-09-18T07:03:46.463Z,148998.00
2018-09-18T07:06:16.390Z,148882.00
2018-09-18T07:08:46.686Z,148896.94
2018-09-18T07:11:16.846Z,148845.83
2018-09-18T07:13:46.870Z,148829.63
2018-09-18T07:16:17.045Z,148848.31
2018-09-18T07:18:47.045Z,148849.56
2018-09-18T07:21:17.369Z,148829.63
2018-09-18T07:23:47.640Z,148903.17
2018-09-18T07:26:18.310Z,148899.44
2018-09-18T07:28:49.526Z,148858.28
2018-09-18T07:31:19.330Z,148857.03
2018-09-18T07:33:49.521Z,148843.34
2018-09-18T07:36:19.769Z,148904.42
2018-09-18T07:38:49.780Z,148966.84
2018-09-18T07:41:20.999Z,148975.56
2018-09-18T07:43:51.108Z,149035.42
2018-09-18T07:46:21.405Z,149084.06
2018-09-18T07:48:51.663Z,149116.53
2018-09-18T07:51:21.823Z,149127.78
2018-09-18T07:53:52.048Z,149167.72
2018-09-18T07:56:22.634Z,149074.09
2018-09-18T07:58:53.299Z,149092.80
2018-09-18T08:01:24.360Z,149114.03
2018-09-18T08:03:55.088Z,149201.44
2018-09-18T08:06:25.239Z,149236.34
2018-09-18T08:08:56.237Z,149168.97
2018-09-18T08:11:27.208Z,149130.28
2018-09-18T08:13:57.315Z,149084.06
2018-09-18T08:16:27.654Z,149060.39
2018-09-18T08:18:57.873Z,149031.69
2018-09-18T08:21:27.827Z,149065.38
2018-09-18T08:24:00.253Z,149067.87
2018-09-18T08:26:30.243Z,149067.87
2018-09-18T08:29:00.575Z,149029.19
2018-09-18T08:31:30.716Z,149014.23
2018-09-18T08:34:01.075Z,149022.97
2018-09-18T08:36:32.596Z,149002.97
2018-09-18T08:39:03.433Z,149032.94
2018-09-18T08:41:34.909Z,149091.55
2018-09-18T08:44:05.553Z,148991.77
2018-09-18T08:46:36.100Z,149097.78
2018-09-18T08:49:07.253Z,149097.78
2018-09-18T08:51:37.423Z,149077.84
2018-09-18T08:54:07.631Z,149059.16
2018-09-18T08:56:38.336Z,149061.64
2018-09-18T08:59:09.764Z,149046.64
2018-09-18T09:01:40.456Z,149051.63
2018-09-18T09:04:14.951Z,148983.03
2018-09-18T09:06:45.514Z,148994.25
2018-09-18T09:09:16.214Z,149046.64
2018-09-18T09:11:46.656Z,149085.31
2018-09-18T09:14:18.897Z,149071.61
2018-09-18T09:16:49.096Z,149084.06
2018-09-18T09:19:19.341Z,149051.63
2018-09-18T09:21:49.505Z,149067.87
2018-09-18T09:24:20.331Z,149082.81
2018-09-18T09:26:51.245Z,149124.05
2018-09-18T09:29:21.509Z,149119.06
2018-09-18T09:31:53.701Z,149137.75
2018-09-18T09:34:23.860Z,149109.05
2018-09-18T09:36:54.014Z,149115.28
2018-09-18T09:39:24.209Z,149074.09
2018-09-18T09:41:54.942Z,149100.27
2018-09-18T09:44:25.375Z,149064.13
2018-09-18T09:46:55.798Z,149042.89
2018-09-18T09:49:25.974Z,148999.23
2018-09-18T09:51:56.098Z,148986.78
2018-09-18T09:54:26.467Z,148964.36
2018-09-18T09:56:56.780Z,148994.25
2018-09-18T09:59:26.967Z,149037.91
2018-09-18T10:02:01.744Z,149074.09
2018-09-18T10:04:32.096Z,149065.38
2018-09-18T10:07:02.381Z,149101.52
2018-09-18T10:09:32.397Z,149055.36
2018-09-18T10:12:02.694Z,149049.12
2018-09-18T10:14:34.185Z,149049.12
2018-09-18T10:17:04.288Z,149051.63
2018-09-18T10:19:34.319Z,149014.23
2018-09-18T10:22:05.239Z,148991.77
2018-09-18T10:24:35.589Z,149030.44
2018-09-18T10:27:05.683Z,149017.97
2018-09-18T10:29:35.620Z,148971.83
2018-09-18T10:32:05.983Z,148980.55
2018-09-18T10:34:36.156Z,148990.52
2018-09-18T10:37:06.632Z,148990.52
2018-09-18T10:39:37.393Z,149017.97
2018-09-18T10:42:12.128Z,149009.25
2018-09-18T10:44:43.053Z,149006.72
2018-09-18T10:47:13.464Z,149016.73
2018-09-18T10:49:43.663Z,149007.95
2018-09-18T10:52:13.943Z,148983.03
2018-09-18T10:54:43.857Z,148958.08
2018-09-18T10:57:14.148Z,149002.97
2018-09-18T10:59:44.259Z,149029.19
2018-09-18T11:02:14.419Z,149069.12
2018-09-18T11:04:46.049Z,149096.53
2018-09-18T11:07:16.350Z,149069.12
2018-09-18T11:09:47.422Z,149027.94
2018-09-18T11:12:17.538Z,149056.66
2018-09-18T11:14:48.328Z,149055.36
2018-09-18T11:17:18.368Z,149036.67
2018-09-18T11:19:48.518Z,149055.36
2018-09-18T11:22:18.909Z,149024.20
2018-09-18T11:24:48.898Z,149036.67
2018-09-18T11:27:20.671Z,149061.64
2018-09-18T11:29:51.688Z,149057.91
2018-09-18T11:32:22.006Z,149060.39
2018-09-18T11:34:53.174Z,149054.11
2018-09-18T11:37:23.248Z,149056.66
2018-09-18T11:39:53.581Z,149039.16
2018-09-18T11:42:24.050Z,148999.23
2018-09-18T11:44:54.497Z,149031.69
2018-09-18T11:47:25.425Z,149035.42
2018-09-18T11:49:55.734Z,149057.91
2018-09-18T11:52:25.715Z,149061.64
2018-09-18T11:54:55.461Z,149037.91
2018-09-18T11:57:25.440Z,148983.03
2018-09-18T11:59:55.055Z,148931.91
2018-09-18T12:02:26.241Z,148953.09
2018-09-18T12:04:56.363Z,148991.77
2018-09-18T12:07:27.114Z,149004.22
2018-09-18T12:09:58.041Z,149031.69
2018-09-18T12:12:28.612Z,149031.69
2018-09-18T12:14:59.023Z,149047.89
2018-09-18T12:17:29.273Z,149087.81
2018-09-18T12:20:03.493Z,149091.55
2018-09-18T12:22:33.924Z,149052.88
2018-09-18T12:25:04.471Z,149034.17
2018-09-18T12:27:35.001Z,149056.66
2018-09-18T12:30:06.390Z,148954.34
2018-09-18T12:32:36.242Z,148986.78
2018-09-18T12:35:09.647Z,148990.52
2018-09-18T12:37:39.869Z,148969.34
2018-09-18T12:40:10.251Z,148961.86
2018-09-18T12:42:42.409Z,148968.09
2018-09-18T12:45:12.519Z,148974.31
2018-09-18T12:47:42.570Z,149001.73
2018-09-18T12:50:13.151Z,148994.25
2018-09-18T12:52:44.306Z,149011.75
2018-09-18T12:55:15.452Z,148981.80
2018-09-18T12:57:45.876Z,149001.73
2018-09-18T13:00:16.870Z,148984.28
2018-09-18T13:02:47.220Z,148949.36
2018-09-18T13:05:19.179Z,148956.83
2018-09-18T13:07:49.605Z,148984.28
2018-09-18T13:10:21.260Z,148949.36
2018-09-18T13:12:51.967Z,148924.44
2018-09-18T13:15:22.119Z,148930.67
2018-09-18T13:17:52.358Z,148944.38
2018-09-18T13:20:22.921Z,148921.95
2018-09-18T13:22:52.951Z,148919.41
2018-09-18T13:25:22.927Z,148916.92
2018-09-18T13:27:54.379Z,148893.20
2018-09-18T13:30:24.823Z,148898.19
2018-09-18T13:32:54.921Z,148885.73
2018-09-18T13:35:26.167Z,148884.48
2018-09-18T13:37:56.339Z,148901.92
2018-09-18T13:40:28.112Z,148904.42
2018-09-18T13:43:02.695Z,148898.19
2018-09-18T13:45:32.931Z,148869.53
2018-09-18T13:48:03.974Z,148890.72
2018-09-18T13:50:34.399Z,148914.42
2018-09-18T13:53:04.231Z,148874.52
2018-09-18T13:55:34.012Z,148862.02
2018-09-18T13:58:05.177Z,148869.53
2018-09-18T14:00:35.293Z,148867.05
2018-09-18T14:03:05.648Z,148878.25
2018-09-18T14:05:35.416Z,148885.73
2018-09-18T14:08:05.518Z,148877.02
2018-09-18T14:10:35.374Z,148847.06
2018-09-18T14:13:05.337Z,148864.50
2018-09-18T14:15:35.790Z,148834.63
2018-09-18T14:18:06.746Z,148867.05
2018-09-18T14:20:37.521Z,148858.28
2018-09-18T14:23:08.412Z,148837.11
2018-09-18T14:25:39.957Z,148839.59
2018-09-18T14:28:11.132Z,148827.16
2018-09-18T14:30:42.456Z,148834.63
2018-09-18T14:33:13.637Z,148820.92
2018-09-18T14:35:44.372Z,148822.16
2018-09-18T14:38:15.497Z,148827.16
2018-09-18T14:40:45.877Z,148845.83
2018-09-18T14:43:16.231Z,148829.63
2018-09-18T14:45:46.546Z,148812.16
2018-09-18T14:48:17.440Z,148789.73
2018-09-18T14:50:48.932Z,148795.97
2018-09-18T14:53:19.160Z,148784.75
2018-09-18T14:55:49.256Z,148781.03
2018-09-18T14:58:19.422Z,148789.73
2018-09-18T15:00:50.539Z,148759.81
2018-09-18T15:03:20.645Z,148758.56
2018-09-18T15:05:51.437Z,148749.84
2018-09-18T15:08:21.542Z,148773.55
2018-09-18T15:10:52.413Z,148748.59
2018-09-18T15:13:22.675Z,148737.39
2018-09-18T15:15:53.076Z,148722.41
2018-09-18T15:18:24.865Z,148728.69
2018-09-18T15:20:55.015Z,148692.48
2018-09-18T15:23:25.326Z,148680.03
2018-09-18T15:25:55.775Z,148667.53
2018-09-18T15:28:26.020Z,148650.11
2018-09-18T15:30:57.206Z,148658.83
2018-09-18T15:33:27.394Z,148662.56
2018-09-18T15:35:57.386Z,148652.59
2018-09-18T15:38:27.692Z,148630.14
2018-09-18T15:40:59.233Z,148599.03
2018-09-18T15:43:31.169Z,148581.56
2018-09-18T15:46:01.307Z,148572.84
2018-09-18T15:48:33.834Z,148582.81
2018-09-18T15:51:04.102Z,148552.94
2018-09-18T15:53:34.209Z,148557.92
2018-09-18T15:56:04.357Z,148547.97
2018-09-18T15:58:35.602Z,148531.73
2018-09-18T16:01:06.935Z,148542.98
2018-09-18T16:03:37.184Z,148510.58
2018-09-18T16:06:08.986Z,148514.31
2018-09-18T16:08:40.085Z,148490.63
2018-09-18T16:11:11.996Z,148480.62
2018-09-18T16:13:44.018Z,148491.87
2018-09-18T16:16:15.541Z,148488.09
2018-09-18T16:18:45.938Z,148469.44
2018-09-18T16:21:16.343Z,148447.03
2018-09-18T16:23:46.409Z,148439.53
2018-09-18T16:26:16.641Z,148405.94
2018-09-18T16:28:46.872Z,148423.34
2018-09-18T16:31:17.147Z,148420.88
2018-09-18T16:33:48.570Z,148435.80
2018-09-18T16:36:18.964Z,148403.45
2018-09-18T16:38:49.652Z,148400.97
2018-09-18T16:41:20.123Z,148410.91
2018-09-18T16:43:52.184Z,148399.72
2018-09-18T16:46:22.441Z,148397.23
2018-09-18T16:48:53.668Z,148376.03
2018-09-18T16:51:26.431Z,148373.56
2018-09-18T16:53:57.076Z,148377.28
2018-09-18T16:56:28.227Z,148378.53
2018-09-18T16:58:59.350Z,148374.80
2018-09-18T17:02:58.905Z,148362.36
2018-09-18T17:05:29.043Z,148346.14
2018-09-18T17:07:59.358Z,148334.95
2018-09-18T17:10:29.751Z,148322.52
2018-09-18T17:13:01.726Z,148323.75
2018-09-18T17:18:17.389Z,148332.47
2018-09-18T17:20:48.364Z,148333.70
2018-09-18T17:23:18.412Z,148285.16
2018-09-18T17:25:49.104Z,148318.78
2018-09-18T17:28:20.255Z,148320.03
2018-09-18T17:30:50.780Z,148320.03
2018-09-18T17:33:21.201Z,148307.59
2018-09-18T17:35:51.929Z,148296.34
2018-09-18T17:38:23.143Z,148280.14
2018-09-18T17:40:53.204Z,148285.16
2018-09-18T17:43:23.803Z,148281.44
2018-09-18T17:45:54.021Z,148275.17
2018-09-18T17:48:24.798Z,148272.69
2018-09-18T17:50:54.777Z,148250.25
2018-09-18T17:53:25.008Z,148250.25
2018-09-18T17:55:55.151Z,148252.78
2018-09-18T17:58:26.875Z,148259.00
2018-09-18T18:00:58.238Z,148257.77
2018-09-18T18:03:28.438Z,148252.78
2018-09-18T18:05:58.569Z,148226.63
2018-09-18T18:08:28.667Z,148206.75
2018-09-18T18:10:58.799Z,148176.86
2018-09-18T18:13:28.986Z,148132.06
2018-09-18T18:16:01.231Z,148098.47
2018-09-18T18:18:32.100Z,148103.44
2018-09-18T18:21:02.251Z,148056.17
2018-09-18T18:23:32.400Z,148068.64
2018-09-18T18:26:03.730Z,148044.94
2018-09-18T18:28:34.490Z,148048.70
2018-09-18T18:31:04.612Z,148023.81
2018-09-18T18:33:34.768Z,148025.06
2018-09-18T18:36:06.977Z,148015.06
2018-09-18T18:38:38.405Z,147995.19
2018-09-18T18:41:10.535Z,148001.41
2018-09-18T18:43:41.377Z,148002.64
2018-09-18T18:46:13.508Z,148003.89
2018-09-18T18:48:44.864Z,147997.67
2018-09-18T18:51:14.931Z,148007.61
2018-09-18T18:53:46.021Z,147990.22
2018-09-18T18:56:16.233Z,147995.19
2018-09-18T18:58:46.487Z,147966.56
2018-09-18T19:01:17.528Z,147980.28
2018-09-18T19:03:47.883Z,147970.34
2018-09-18T19:06:18.374Z,147981.53
2018-09-18T19:08:50.655Z,147980.28
2018-09-18T19:11:21.275Z,147977.80
2018-09-18T19:13:51.565Z,147985.25
2018-09-18T19:16:23.504Z,147970.34
2018-09-18T19:18:53.785Z,147977.80
2018-09-18T19:21:23.967Z,147960.36
2018-09-18T19:23:55.858Z,147961.59
2018-09-18T19:26:26.045Z,147961.59
2018-09-18T19:28:57.326Z,147962.84
2018-09-18T19:31:28.335Z,147965.33
2018-09-18T19:33:58.725Z,147949.19
2018-09-18T19:36:28.974Z,147944.22
2018-09-18T19:38:59.556Z,147946.69
2018-09-18T19:41:30.220Z,147931.78
2018-09-18T19:44:01.029Z,147936.75
2018-09-18T19:46:31.330Z,147955.39
2018-09-18T19:49:01.632Z,147936.75
2018-09-18T19:51:31.791Z,147955.39
2018-09-18T19:54:01.980Z,147961.59
2018-09-18T19:56:32.156Z,147952.91
2018-09-18T19:59:02.565Z,147961.59
2018-09-18T20:01:32.832Z,147938.00
2018-09-18T20:04:02.995Z,147923.09
2018-09-18T20:06:33.156Z,147895.72
2018-09-18T20:09:05.404Z,147936.75
2018-09-18T20:11:35.989Z,147941.72
2018-09-18T20:14:06.396Z,147939.25
2018-09-18T20:16:36.786Z,147936.75
2018-09-18T20:19:06.928Z,147947.94
2018-09-18T20:21:37.152Z,147944.22
2018-09-18T20:24:07.216Z,147931.78
2018-09-18T20:26:37.265Z,147935.52
2018-09-18T20:29:08.218Z,147952.91
2018-09-18T20:31:39.701Z,147939.25
2018-09-18T20:34:10.075Z,147935.52
2018-09-18T20:36:40.051Z,147918.08
2018-09-18T20:39:11.765Z,147920.56
2018-09-18T20:41:41.687Z,147925.58
2018-09-18T20:44:13.103Z,147909.38
2018-09-18T20:46:43.166Z,147908.14
2018-09-18T20:49:14.509Z,147909.38
2018-09-18T20:51:44.633Z,147935.52
2018-09-18T20:54:14.759Z,147950.42
2018-09-18T20:56:45.077Z,147940.48
2018-09-18T20:59:15.622Z,147949.19
2018-09-18T21:01:45.822Z,147965.33
2018-09-18T21:04:16.482Z,147961.59
2018-09-18T21:06:46.468Z,147960.36
2018-09-18T21:09:16.620Z,147961.59
2018-09-18T21:11:46.890Z,147956.63
2018-09-18T21:14:17.426Z,147949.19
2018-09-18T21:16:47.860Z,147947.94
2018-09-18T21:19:19.253Z,147967.81
2018-09-18T21:21:49.922Z,147965.33
2018-09-18T21:24:21.007Z,147952.91
2018-09-18T21:26:51.420Z,147954.16
2018-09-18T21:29:21.569Z,147962.84
2018-09-18T21:31:53.170Z,147970.34
2018-09-18T21:34:25.478Z,147956.63
2018-09-18T21:36:55.942Z,147965.33
2018-09-18T21:39:27.086Z,147959.13
2018-09-18T21:41:57.493Z,147965.33
2018-09-18T21:44:29.585Z,147965.33
2018-09-18T21:46:59.763Z,147962.84
2018-09-18T21:49:30.046Z,147975.31
2018-09-18T21:52:00.207Z,147985.25
2018-09-18T21:54:32.026Z,147972.83
2018-09-18T21:57:02.791Z,147967.81
2018-09-18T21:59:36.936Z,147976.55
2018-09-18T22:02:07.432Z,147975.31
2018-09-18T22:04:41.078Z,147960.36
2018-09-18T22:07:11.347Z,147952.91
2018-09-18T22:09:41.540Z,147957.88
2018-09-18T22:12:13.062Z,147945.45
2018-09-18T22:14:43.297Z,147921.81
2018-09-18T22:17:13.401Z,147925.58
2018-09-18T22:19:46.422Z,147955.39
2018-09-18T22:22:16.613Z,147946.69
2018-09-18T22:24:46.533Z,147950.42
2018-09-18T22:27:16.809Z,147949.19
2018-09-18T22:29:47.256Z,147947.94
2018-09-18T22:32:17.217Z,147952.91
2018-09-18T22:34:47.326Z,147942.97
2018-09-18T22:37:17.495Z,147925.58
2018-09-18T22:39:47.473Z,147940.48
2018-09-18T22:42:18.504Z,147949.19
2018-09-18T22:44:48.771Z,147941.72
2018-09-18T22:47:18.967Z,147956.63
2018-09-18T22:49:50.231Z,147967.81
2018-09-18T22:52:21.445Z,147960.36
2018-09-18T22:54:51.681Z,147960.36
2018-09-18T22:57:22.151Z,147959.13
2018-09-18T22:59:52.426Z,147951.66
2018-09-18T23:02:22.441Z,147956.63
2018-09-18T23:04:53.468Z,147952.91
2018-09-18T23:07:24.290Z,147940.48
2018-09-18T23:09:55.180Z,147950.42
2018-09-18T23:12:25.492Z,147920.56
2018-09-18T23:14:55.733Z,147931.78
2018-09-18T23:17:26.085Z,147926.81
2018-09-18T23:19:56.340Z,147905.66
2018-09-18T23:22:26.659Z,147921.81
2018-09-18T23:24:57.983Z,147911.88
2018-09-18T23:27:28.057Z,147904.42
2018-09-18T23:29:58.272Z,147903.17
2018-09-18T23:32:28.406Z,147908.14
2018-09-18T23:34:58.703Z,147905.66
2018-09-18T23:37:29.071Z,147900.69
2018-09-18T23:40:00.088Z,147896.97
2018-09-18T23:42:30.087Z,147901.94
2018-09-18T23:45:00.023Z,147895.72
2018-09-18T23:47:30.210Z,147901.94
2018-09-18T23:50:00.409Z,147874.56
2018-09-18T23:52:30.593Z,147879.58
2018-09-18T23:55:00.803Z,147878.33
2018-09-18T23:57:31.660Z,147854.69
